Aurora, South Dakota
Current Conditions -  °F | °C
As of 5:35 AM on Saturday 22 Nov 2014 (Local Time) from KMDS Reporting Station
Clear Clear  
Wind Chill: -7°   Ceiling: Unl
Heat Index: -4°   Visibility: 10mi
Dew Point: -4°   Wind: 5mph
Humidity: 100%   Direction: 180°S
Pressure: 29.74"   Gusts: NA
Location:  44.28°N, 96.69°W
Report Text: KMDS 221135Z AUTO 18004KT 10SM CLR M04/M04 A2974 RMK AO2
Loading
Personal Weather Stations






























Interactive Weather Map New forecast layout! Learn more

10-Day Weather Forecast

Advertisements
Track Severe Weather on mobile